createdAt,value
2022-09-04T00:00:10.554Z,14.13
2022-09-04T00:01:55.891Z,18.40
2022-09-04T00:03:39.817Z,14.77
2022-09-04T00:05:20.585Z,12.60
2022-09-04T00:07:03.356Z,13.32
2022-09-04T00:08:57.182Z,10.15
2022-09-04T00:10:38.282Z,13.05
2022-09-04T00:12:11.883Z,12.85
2022-09-04T00:13:48.796Z,13.50
2022-09-04T00:15:26.926Z,12.70
2022-09-04T00:17:04.196Z,13.48
2022-09-04T00:18:41.475Z,15.32
2022-09-04T00:20:30.049Z,10.88
2022-09-04T00:22:11.399Z,11.23
2022-09-04T00:23:50.026Z,11.38
2022-09-04T00:25:31.683Z,14.48
2022-09-04T00:27:11.940Z,12.70
2022-09-04T00:28:49.447Z,15.88
2022-09-04T00:30:24.544Z,14.65
2022-09-04T00:32:08.315Z,12.10
2022-09-04T00:33:50.645Z,13.25
2022-09-04T00:35:31.473Z,14.32
2022-09-04T00:37:08.013Z,11.40
2022-09-04T00:38:46.423Z,10.45
2022-09-04T00:40:31.207Z,10.98
2022-09-04T00:42:24.056Z,13.18
2022-09-04T00:44:23.436Z,13.35
2022-09-04T00:46:24.595Z,12.43
2022-09-04T00:48:27.805Z,11.80
2022-09-04T00:50:29.253Z,12.35
2022-09-04T00:52:11.112Z,11.65
2022-09-04T00:54:10.682Z,12.35
2022-09-04T00:56:03.246Z,12.80
2022-09-04T00:58:08.574Z,11.65
2022-09-04T01:00:17.764Z,13.77
2022-09-04T01:01:55.986Z,11.60
2022-09-04T01:03:51.288Z,10.57
2022-09-04T01:05:45.625Z,11.43
2022-09-04T01:07:37.584Z,15.75
2022-09-04T01:09:34.933Z,11.45
2022-09-04T01:11:18.624Z,11.30
2022-09-04T01:13:02.394Z,11.10
2022-09-04T01:14:42.863Z,10.20
2022-09-04T01:16:22.821Z,11.50
2022-09-04T01:18:05.250Z,11.68
2022-09-04T01:19:49.900Z,10.82
2022-09-04T01:21:49.661Z,15.27
2022-09-04T01:23:53.794Z,13.57
2022-09-04T01:25:35.692Z,10.85
2022-09-04T01:27:20.225Z,10.32
2022-09-04T01:29:07.376Z,10.45
2022-09-04T01:30:50.585Z,13.75
2022-09-04T01:32:36.607Z,12.23
2022-09-04T01:34:24.517Z,12.73
2022-09-04T01:36:07.225Z,13.07
2022-09-04T01:37:52.647Z,12.25
2022-09-04T01:39:30.424Z,12.68
2022-09-04T01:41:14.728Z,11.13
2022-09-04T01:42:54.985Z,10.32
2022-09-04T01:44:28.382Z,10.57
2022-09-04T01:46:33.692Z,9.80
2022-09-04T01:48:10.540Z,9.50
2022-09-04T01:49:49.047Z,11.02
2022-09-04T01:51:27.501Z,8.18
2022-09-04T01:53:08.020Z,11.32
2022-09-04T01:54:54.964Z,9.82
2022-09-04T01:56:40.141Z,11.18
2022-09-04T01:58:24.301Z,10.95
2022-09-04T02:00:05.342Z,13.93
2022-09-04T02:01:47.096Z,10.25
2022-09-04T02:03:26.568Z,10.90
2022-09-04T02:05:09.435Z,11.85
2022-09-04T02:06:51.780Z,13.00
2022-09-04T02:08:36.817Z,10.32
2022-09-04T02:10:18.842Z,10.57
2022-09-04T02:12:03.830Z,10.55
2022-09-04T02:14:06.864Z,10.43
2022-09-04T02:15:48.229Z,9.32
2022-09-04T02:17:36.833Z,10.80
2022-09-04T02:19:23.247Z,8.52
2022-09-04T02:21:03.078Z,9.73
2022-09-04T02:22:46.293Z,8.70
2022-09-04T02:24:28.248Z,11.40
2022-09-04T02:26:12.341Z,10.63
2022-09-04T02:27:53.907Z,9.48
2022-09-04T02:29:36.529Z,12.80
2022-09-04T02:31:16.794Z,8.30
2022-09-04T02:33:01.106Z,15.70
2022-09-04T02:34:41.307Z,11.73
2022-09-04T02:36:21.516Z,13.40
2022-09-04T02:38:09.977Z,10.07
2022-09-04T02:40:04.697Z,12.75
2022-09-04T02:41:43.256Z,9.38
2022-09-04T02:43:35.690Z,8.23
2022-09-04T02:45:24.535Z,9.85
2022-09-04T02:47:05.905Z,11.13
2022-09-04T02:48:53.080Z,10.98
2022-09-04T02:50:46.388Z,12.02
2022-09-04T02:52:33.649Z,8.30
2022-09-04T02:54:15.877Z,8.70
2022-09-04T02:56:09.761Z,10.30
2022-09-04T02:57:57.509Z,9.10
2022-09-04T02:59:42.469Z,16.58
2022-09-04T03:01:25.912Z,10.57
2022-09-04T03:03:03.083Z,9.18
2022-09-04T03:04:50.219Z,7.40
2022-09-04T03:06:33.405Z,8.52
2022-09-04T03:08:14.444Z,10.55
2022-09-04T03:09:51.568Z,11.93
2022-09-04T03:11:29.938Z,9.65
2022-09-04T03:13:10.371Z,10.00
2022-09-04T03:14:50.282Z,13.38
2022-09-04T03:16:31.294Z,10.88
2022-09-04T03:18:07.633Z,13.10
2022-09-04T03:19:48.702Z,9.35
2022-09-04T03:21:25.281Z,9.35
2022-09-04T03:23:02.612Z,8.57
2022-09-04T03:24:45.423Z,8.93
2022-09-04T03:26:24.803Z,8.80
2022-09-04T03:27:57.153Z,10.18
2022-09-04T03:29:39.439Z,7.53
2022-09-04T03:31:25.111Z,9.05
2022-09-04T03:33:05.903Z,9.68
2022-09-04T03:34:50.187Z,7.88
2022-09-04T03:36:33.572Z,7.63
2022-09-04T03:38:20.933Z,8.45
2022-09-04T03:40:12.734Z,7.20
2022-09-04T03:41:56.374Z,12.32
2022-09-04T03:43:41.525Z,9.43
2022-09-04T03:45:26.117Z,8.73
2022-09-04T03:47:10.179Z,7.43
2022-09-04T03:49:13.151Z,7.68
2022-09-04T03:50:58.269Z,10.13
2022-09-04T03:52:39.006Z,8.13
2022-09-04T03:54:28.361Z,6.95
2022-09-04T03:56:36.039Z,7.82
2022-09-04T03:58:21.351Z,10.13
2022-09-04T04:00:09.176Z,10.40
2022-09-04T04:01:54.096Z,8.55
2022-09-04T04:03:36.243Z,7.03
2022-09-04T04:05:37.302Z,10.15
2022-09-04T04:07:21.865Z,8.88
2022-09-04T04:09:05.295Z,8.35
2022-09-04T04:10:53.064Z,9.05
2022-09-04T04:12:56.944Z,7.82
2022-09-04T04:15:04.515Z,6.45
2022-09-04T04:16:55.953Z,9.02
2022-09-04T04:18:54.298Z,7.90
2022-09-04T04:20:38.723Z,12.10
2022-09-04T04:22:35.388Z,7.80
2022-09-04T04:24:38.995Z,7.93
2022-09-04T04:26:22.382Z,8.00
2022-09-04T04:28:17.350Z,6.25
2022-09-04T04:30:04.346Z,10.15
2022-09-04T04:32:09.987Z,7.93
2022-09-04T04:33:55.600Z,7.40
2022-09-04T04:35:35.927Z,7.10
2022-09-04T04:37:14.642Z,10.88
2022-09-04T04:39:09.978Z,9.38
2022-09-04T04:41:02.327Z,7.97
2022-09-04T04:42:41.556Z,8.82
2022-09-04T04:44:18.448Z,10.18
2022-09-04T04:45:58.634Z,10.43
2022-09-04T04:47:55.206Z,8.80
2022-09-04T04:49:42.130Z,10.68
2022-09-04T04:51:40.943Z,10.27
2022-09-04T04:53:21.094Z,10.80
2022-09-04T04:55:06.458Z,9.65
2022-09-04T04:56:47.818Z,9.90
2022-09-04T04:58:42.652Z,6.80
2022-09-04T05:00:25.228Z,11.57
2022-09-04T05:02:07.960Z,10.23
2022-09-04T05:03:54.035Z,9.73
2022-09-04T05:05:47.852Z,9.02
2022-09-04T05:07:35.942Z,8.82
2022-09-04T05:09:17.740Z,8.98
2022-09-04T05:10:57.184Z,10.75
2022-09-04T05:12:52.534Z,8.00
2022-09-04T05:14:36.766Z,7.43
2022-09-04T05:16:19.864Z,8.23
2022-09-04T05:17:57.845Z,6.65
2022-09-04T05:19:37.349Z,8.55
2022-09-04T05:21:21.136Z,7.78
2022-09-04T05:23:06.539Z,7.40
2022-09-04T05:24:50.218Z,10.93
2022-09-04T05:26:38.126Z,9.98
2022-09-04T05:28:25.335Z,8.48
2022-09-04T05:30:03.523Z,9.07
2022-09-04T05:31:46.387Z,14.88
2022-09-04T05:33:26.816Z,6.20
2022-09-04T05:35:14.935Z,7.55
2022-09-04T05:36:58.984Z,6.90
2022-09-04T05:38:41.843Z,5.88
2022-09-04T05:40:24.717Z,6.28
2022-09-04T05:42:10.078Z,5.80
2022-09-04T05:44:07.954Z,7.40
2022-09-04T05:45:53.973Z,4.55
2022-09-04T05:47:43.500Z,7.75
2022-09-04T05:49:29.225Z,5.80
2022-09-04T05:51:49.923Z,7.38
2022-09-04T05:53:48.365Z,8.02
2022-09-04T05:55:55.287Z,5.90
2022-09-04T05:57:44.955Z,7.85
2022-09-04T05:59:36.354Z,5.20
2022-09-04T06:01:25.389Z,6.05
2022-09-04T06:03:23.280Z,6.53
2022-09-04T06:05:21.623Z,5.25
2022-09-04T06:07:04.092Z,6.68
2022-09-04T06:09:08.778Z,6.40
2022-09-04T06:10:56.605Z,4.68
2022-09-04T06:13:09.529Z,9.10
2022-09-04T06:15:02.134Z,6.18
2022-09-04T06:16:55.026Z,4.65
2022-09-04T06:18:59.949Z,7.65
2022-09-04T06:20:50.035Z,6.60
2022-09-04T06:22:39.997Z,8.52
2022-09-04T06:24:32.488Z,3.38
2022-09-04T06:26:19.185Z,4.13
2022-09-04T06:28:21.666Z,5.97
2022-09-04T06:30:13.049Z,3.63
2022-09-04T06:32:04.440Z,3.72
2022-09-04T06:33:50.227Z,4.00
2022-09-04T06:35:40.842Z,4.28
2022-09-04T06:37:26.123Z,3.10
2022-09-04T06:39:38.687Z,3.65
2022-09-04T06:41:35.755Z,4.07
2022-09-04T06:43:18.839Z,6.20
2022-09-04T06:45:04.862Z,3.67
2022-09-04T06:46:45.676Z,3.50
2022-09-04T06:48:29.733Z,3.85
2022-09-04T06:50:20.242Z,3.53
2022-09-04T06:52:07.619Z,3.38
2022-09-04T06:53:49.659Z,3.15
2022-09-04T06:55:30.915Z,3.28
2022-09-04T06:57:29.214Z,3.10
2022-09-04T06:59:24.429Z,3.60
2022-09-04T07:01:04.152Z,3.50
2022-09-04T07:02:59.836Z,3.10
2022-09-04T07:04:49.573Z,4.40
2022-09-04T07:06:32.583Z,3.70
2022-09-04T07:08:13.221Z,6.30
2022-09-04T07:09:51.107Z,3.90
2022-09-04T07:11:40.671Z,4.97
2022-09-04T07:13:42.135Z,3.58
2022-09-04T07:15:43.781Z,4.57
2022-09-04T07:17:25.687Z,4.20
2022-09-04T07:19:18.786Z,3.92
2022-09-04T07:21:00.926Z,4.15
2022-09-04T07:23:04.052Z,3.80
2022-09-04T07:24:51.225Z,3.97
2022-09-04T07:26:31.155Z,3.90
2022-09-04T07:28:16.803Z,8.02
2022-09-04T07:30:01.365Z,3.83
2022-09-04T07:31:40.744Z,5.40
2022-09-04T07:33:21.698Z,3.95
2022-09-04T07:35:02.300Z,3.60
2022-09-04T07:36:41.914Z,6.22
2022-09-04T07:38:24.602Z,3.20
2022-09-04T07:40:08.227Z,3.33
2022-09-04T07:41:48.266Z,4.22
2022-09-04T07:43:31.006Z,5.60
2022-09-04T07:45:11.784Z,3.92
2022-09-04T07:46:54.062Z,3.58
2022-09-04T07:48:34.981Z,4.25
2022-09-04T07:50:12.250Z,4.88
2022-09-04T07:51:53.076Z,6.47
2022-09-04T07:53:46.312Z,5.78
2022-09-04T07:55:31.565Z,7.43
2022-09-04T07:57:42.588Z,3.97
2022-09-04T07:59:40.670Z,4.47
2022-09-04T08:01:47.853Z,3.10
2022-09-04T08:03:53.882Z,3.00
2022-09-04T08:05:32.864Z,2.85
2022-09-04T08:07:11.858Z,3.55
2022-09-04T08:09:02.440Z,3.50
2022-09-04T08:10:43.116Z,3.20
2022-09-04T08:12:45.182Z,5.05
2022-09-04T08:14:27.780Z,4.10
2022-09-04T08:16:07.782Z,3.42
2022-09-04T08:17:57.849Z,4.40
2022-09-04T08:19:45.755Z,6.15
2022-09-04T08:21:27.200Z,5.95
2022-09-04T08:23:17.969Z,4.93
2022-09-04T08:25:12.939Z,2.83
2022-09-04T08:27:01.549Z,3.35
2022-09-04T08:28:47.966Z,3.80
2022-09-04T08:30:22.391Z,4.53
2022-09-04T08:32:10.897Z,5.03
2022-09-04T08:34:07.743Z,4.90
2022-09-04T08:35:53.784Z,3.13
2022-09-04T08:37:29.573Z,3.88
2022-09-04T08:39:12.260Z,2.95
2022-09-04T08:41:15.696Z,2.80
2022-09-04T08:43:23.748Z,6.35
2022-09-04T08:45:47.511Z,4.20
2022-09-04T08:47:54.388Z,6.10
2022-09-04T08:49:59.768Z,4.63
2022-09-04T08:52:12.321Z,3.08
2022-09-04T08:54:20.723Z,2.63
2022-09-04T08:56:10.439Z,3.22
2022-09-04T08:58:22.434Z,3.10
2022-09-04T09:00:06.975Z,3.28
2022-09-04T09:02:09.154Z,2.85
2022-09-04T09:04:19.906Z,3.10
2022-09-04T09:06:34.874Z,4.88
2022-09-04T09:08:37.960Z,2.92
2022-09-04T09:10:38.721Z,2.35
2022-09-04T09:12:51.232Z,2.53
2022-09-04T09:14:48.536Z,3.45
2022-09-04T09:16:25.946Z,2.35
2022-09-04T09:18:02.739Z,3.13
2022-09-04T09:19:47.333Z,3.67
2022-09-04T09:21:41.461Z,3.13
2022-09-04T09:23:21.075Z,3.25
2022-09-04T09:25:20.971Z,4.60
2022-09-04T09:27:19.705Z,2.97
2022-09-04T09:29:28.743Z,2.70
2022-09-04T09:31:43.347Z,3.20
2022-09-04T09:34:03.718Z,2.70
2022-09-04T09:36:12.238Z,3.97
2022-09-04T09:38:21.847Z,2.75
2022-09-04T09:40:34.337Z,4.97
2022-09-04T09:42:43.555Z,2.55
2022-09-04T09:44:52.363Z,4.05
2022-09-04T09:47:02.938Z,2.92
2022-09-04T09:49:14.796Z,2.83
2022-09-04T09:51:17.667Z,2.40
2022-09-04T09:53:38.626Z,2.80
2022-09-04T09:55:40.739Z,4.22
2022-09-04T09:57:45.666Z,2.53
2022-09-04T10:00:02.629Z,5.68
2022-09-04T10:02:12.116Z,3.45
2022-09-04T10:04:11.899Z,3.00
2022-09-04T10:06:29.793Z,4.88
2022-09-04T10:08:35.983Z,2.40
2022-09-04T10:10:45.846Z,3.05
2022-09-04T10:12:56.789Z,4.72
2022-09-04T10:15:06.375Z,1.98
2022-09-04T10:17:26.591Z,3.20
2022-09-04T10:19:39.324Z,2.10
2022-09-04T10:22:09.047Z,2.40
2022-09-04T10:24:14.928Z,2.33
2022-09-04T10:26:09.740Z,2.72
2022-09-04T10:28:16.934Z,1.63
2022-09-04T10:30:08.805Z,2.40
2022-09-04T10:32:14.771Z,1.98
2022-09-04T10:34:06.482Z,2.03
2022-09-04T10:35:56.872Z,2.60
2022-09-04T10:37:53.303Z,2.45
2022-09-04T10:39:56.920Z,2.75
2022-09-04T10:41:57.526Z,2.22
2022-09-04T10:43:57.014Z,1.83
2022-09-04T10:45:38.989Z,2.78
2022-09-04T10:47:31.976Z,4.53
2022-09-04T10:49:30.547Z,2.60
2022-09-04T10:51:22.167Z,6.07
2022-09-04T10:53:20.827Z,2.63
2022-09-04T10:55:18.768Z,1.70
2022-09-04T10:57:10.551Z,3.25
2022-09-04T10:59:09.882Z,2.22
2022-09-04T11:00:55.500Z,2.05
2022-09-04T11:03:13.098Z,2.88
2022-09-04T11:05:15.719Z,2.15
2022-09-04T11:07:28.953Z,1.88
2022-09-04T11:09:40.946Z,1.50
2022-09-04T11:11:25.733Z,4.05
2022-09-04T11:13:51.712Z,2.22
2022-09-04T11:15:42.075Z,2.20
2022-09-04T11:17:53.520Z,1.50
2022-09-04T11:20:05.275Z,1.88
2022-09-04T11:22:14.731Z,2.47
2022-09-04T11:24:38.216Z,1.52
2022-09-04T11:26:39.401Z,4.13
2022-09-04T11:29:02.109Z,3.00
2022-09-04T11:30:55.691Z,2.13
2022-09-04T11:32:56.299Z,2.17
2022-09-04T11:35:01.895Z,1.38
2022-09-04T11:37:12.405Z,2.50
2022-09-04T11:39:20.715Z,2.28
2022-09-04T11:41:33.100Z,2.15
2022-09-04T11:43:30.313Z,2.20
2022-09-04T11:45:36.346Z,1.60
2022-09-04T11:47:45.484Z,1.90
2022-09-04T11:49:55.394Z,1.50
2022-09-04T11:52:15.960Z,1.00
2022-09-04T11:54:33.610Z,1.40
2022-09-04T11:56:39.317Z,1.67
2022-09-04T11:58:40.819Z,1.35
2022-09-04T12:00:22.153Z,1.48
2022-09-04T12:02:18.769Z,3.95
2022-09-04T12:04:36.555Z,2.13
2022-09-04T12:06:39.007Z,1.45
2022-09-04T12:08:30.002Z,1.40
2022-09-04T12:10:38.578Z,1.13
2022-09-04T12:12:38.571Z,2.67
2022-09-04T12:14:24.845Z,1.55
2022-09-04T12:16:24.697Z,1.75
2022-09-04T12:18:37.646Z,1.88
2022-09-04T12:20:45.538Z,1.45
2022-09-04T12:22:56.232Z,1.65
2022-09-04T12:24:59.885Z,3.10
2022-09-04T12:26:59.907Z,3.70
2022-09-04T12:29:05.515Z,1.05
2022-09-04T12:30:58.637Z,1.27
2022-09-04T12:33:08.687Z,1.15
2022-09-04T12:35:03.446Z,1.60
2022-09-04T12:37:00.516Z,2.55
2022-09-04T12:39:08.926Z,1.20
2022-09-04T12:40:52.669Z,1.42
2022-09-04T12:42:33.521Z,5.82
2022-09-04T12:44:20.109Z,1.50
2022-09-04T12:46:11.024Z,3.63
2022-09-04T12:47:57.287Z,2.55
2022-09-04T12:49:58.295Z,1.75
2022-09-04T12:51:43.915Z,7.45
2022-09-04T12:53:44.995Z,1.58
2022-09-04T12:55:36.187Z,1.63
2022-09-04T12:57:24.738Z,3.60
2022-09-04T12:59:19.026Z,4.55
2022-09-04T13:01:10.803Z,1.02
2022-09-04T13:02:57.556Z,1.58
2022-09-04T13:04:38.826Z,1.98
2022-09-04T13:06:24.329Z,1.90
2022-09-04T13:08:05.271Z,1.33
2022-09-04T13:09:53.674Z,1.50
2022-09-04T13:11:45.587Z,2.72
2022-09-04T13:13:28.202Z,3.40
2022-09-04T13:15:23.006Z,1.80
2022-09-04T13:17:05.757Z,1.75
2022-09-04T13:18:55.235Z,1.70
2022-09-04T13:20:36.183Z,1.70
2022-09-04T13:22:21.993Z,1.60
2022-09-04T13:24:13.075Z,1.85
2022-09-04T13:26:02.251Z,1.77
2022-09-04T13:27:50.946Z,1.27
2022-09-04T13:29:40.459Z,1.13
2022-09-04T13:31:51.235Z,1.27
2022-09-04T13:33:49.051Z,1.10
2022-09-04T13:35:44.052Z,1.40
2022-09-04T13:37:25.014Z,1.77
2022-09-04T13:39:28.906Z,1.42
2022-09-04T13:41:36.736Z,2.63
2022-09-04T13:43:41.899Z,2.00
2022-09-04T13:45:24.415Z,3.60
2022-09-04T13:47:06.975Z,3.03
2022-09-04T13:48:55.316Z,1.20
2022-09-04T13:50:36.117Z,1.38
2022-09-04T13:52:26.460Z,1.55
2022-09-04T13:54:08.360Z,0.90
2022-09-04T13:55:49.981Z,1.23
2022-09-04T13:57:28.832Z,1.10
2022-09-04T13:59:10.577Z,1.27
2022-09-04T14:00:49.748Z,1.02
2022-09-04T14:02:26.484Z,1.38
2022-09-04T14:04:06.901Z,1.25
2022-09-04T14:05:41.269Z,1.77
2022-09-04T14:07:21.309Z,0.95
2022-09-04T14:09:04.608Z,1.55
2022-09-04T14:10:56.201Z,1.25
2022-09-04T14:12:54.158Z,1.17
2022-09-04T14:14:45.567Z,1.63
2022-09-04T14:16:23.170Z,1.48
2022-09-04T14:18:16.460Z,1.83
2022-09-04T14:20:02.841Z,1.23
2022-09-04T14:21:50.891Z,1.58
2022-09-04T14:23:34.009Z,2.25
2022-09-04T14:25:17.492Z,1.42
2022-09-04T14:26:57.640Z,0.73
2022-09-04T14:28:38.803Z,1.30
2022-09-04T14:30:16.231Z,2.47
2022-09-04T14:31:58.129Z,0.88
2022-09-04T14:33:43.398Z,1.35
2022-09-04T14:35:36.114Z,0.90
2022-09-04T14:37:26.262Z,5.38
2022-09-04T14:41:02.084Z,1.45
2022-09-04T14:42:47.901Z,2.17
2022-09-04T14:44:35.829Z,2.67
2022-09-04T14:46:19.278Z,2.15
2022-09-04T14:47:57.302Z,1.10
2022-09-04T14:49:32.144Z,1.15
2022-09-04T14:51:18.591Z,3.47
2022-09-04T14:52:56.435Z,2.15
2022-09-04T14:54:33.785Z,0.55
2022-09-04T14:56:36.503Z,1.08
2022-09-04T14:58:19.882Z,2.45
2022-09-04T15:00:04.509Z,1.95
2022-09-04T15:01:56.664Z,1.05
2022-09-04T15:03:35.309Z,1.73
2022-09-04T15:05:19.767Z,1.83
2022-09-04T15:07:11.228Z,1.10
2022-09-04T15:08:46.728Z,1.50
2022-09-04T15:10:26.006Z,1.60
2022-09-04T15:12:24.655Z,1.35
2022-09-04T15:14:04.993Z,1.20
2022-09-04T15:15:42.198Z,2.50
2022-09-04T15:17:28.495Z,1.48
2022-09-04T15:19:12.539Z,1.40
2022-09-04T15:20:57.381Z,4.10
2022-09-04T15:22:38.788Z,1.42
2022-09-04T15:24:22.210Z,0.85
2022-09-04T15:26:06.576Z,0.90
2022-09-04T15:27:50.920Z,4.13
2022-09-04T15:29:29.241Z,11.02
2022-09-04T15:31:15.904Z,1.27
2022-09-04T15:32:50.852Z,2.05
2022-09-04T15:34:27.906Z,1.60
2022-09-04T15:36:08.753Z,3.30
2022-09-04T15:37:48.351Z,1.88
2022-09-04T15:39:30.569Z,2.13
2022-09-04T15:41:19.917Z,2.00
2022-09-04T15:43:04.739Z,4.63
2022-09-04T15:44:43.621Z,3.33
2022-09-04T15:46:31.128Z,1.60
2022-09-04T15:48:26.618Z,1.42
2022-09-04T15:50:05.288Z,3.58
2022-09-04T15:51:47.583Z,8.73
2022-09-04T15:53:28.079Z,9.85
2022-09-04T15:55:10.634Z,4.32
2022-09-04T15:56:48.439Z,4.22
2022-09-04T15:58:29.397Z,7.15
2022-09-04T16:00:09.855Z,3.30
2022-09-04T16:01:52.247Z,2.45
2022-09-04T16:03:36.695Z,5.43
2022-09-04T16:05:20.557Z,4.75
2022-09-04T16:07:05.144Z,3.25
2022-09-04T16:08:47.158Z,3.13
2022-09-04T16:10:25.943Z,2.22
2022-09-04T16:12:07.168Z,2.88
2022-09-04T16:13:46.536Z,3.60
2022-09-04T16:15:24.277Z,4.63
2022-09-04T16:17:02.530Z,7.03
2022-09-04T16:18:48.386Z,1.98
2022-09-04T16:20:28.251Z,3.55
2022-09-04T16:22:10.662Z,2.05
2022-09-04T16:23:47.046Z,2.22
2022-09-04T16:25:29.274Z,2.65
2022-09-04T16:27:07.476Z,2.70
2022-09-04T16:28:45.644Z,7.28
2022-09-04T16:30:35.866Z,4.40
2022-09-04T16:32:12.299Z,4.10
2022-09-04T16:33:51.654Z,4.90
2022-09-04T16:35:25.777Z,3.15
2022-09-04T16:37:05.570Z,16.10
2022-09-04T16:38:48.788Z,1.85
2022-09-04T16:40:27.631Z,1.95
2022-09-04T16:42:13.893Z,2.53
2022-09-04T16:44:21.276Z,4.70
2022-09-04T16:46:09.980Z,4.45
2022-09-04T16:47:51.228Z,3.75
2022-09-04T16:49:31.271Z,3.72
2022-09-04T16:51:39.172Z,3.05
2022-09-04T16:53:17.632Z,4.30
2022-09-04T16:54:55.447Z,2.22
2022-09-04T16:56:36.991Z,2.20
2022-09-04T16:58:47.916Z,2.35
2022-09-04T17:00:22.525Z,5.15
2022-09-04T17:02:02.118Z,4.63
2022-09-04T17:03:43.003Z,5.47
2022-09-04T17:05:28.304Z,2.70
2022-09-04T17:07:13.252Z,3.25
2022-09-04T17:08:52.900Z,2.92
2022-09-04T17:10:37.021Z,2.78
2022-09-04T17:12:22.933Z,5.70
2022-09-04T17:14:08.545Z,3.60
2022-09-04T17:15:53.531Z,3.03
2022-09-04T17:17:31.019Z,4.45
2022-09-04T17:19:05.941Z,2.80
2022-09-04T17:23:57.675Z,7.22
2022-09-04T17:28:57.436Z,6.05
2022-09-04T17:28:59.807Z,5.53
2022-09-04T17:29:10.109Z,5.25
2022-09-04T17:29:29.546Z,3.20
2022-09-04T17:30:52.668Z,2.63
2022-09-04T17:32:32.181Z,6.40
2022-09-04T17:40:35.545Z,3.00
2022-09-04T17:40:35.641Z,4.60
2022-09-04T17:40:53.994Z,4.68
2022-09-04T17:41:40.012Z,5.18
2022-09-04T17:43:15.694Z,2.88
2022-09-04T17:44:54.400Z,3.35
2022-09-04T17:46:33.257Z,2.50
2022-09-04T17:48:21.576Z,2.92
2022-09-04T17:49:56.637Z,2.53
2022-09-04T17:51:33.933Z,2.50
2022-09-04T17:53:14.736Z,28.10
2022-09-04T17:55:07.520Z,5.97
2022-09-04T17:56:46.918Z,3.58
2022-09-04T17:58:33.181Z,7.15
2022-09-04T18:00:20.346Z,4.03
2022-09-04T18:02:01.607Z,2.83
2022-09-04T18:03:42.515Z,4.82
2022-09-04T18:05:53.115Z,3.20
2022-09-04T18:08:09.086Z,4.78
2022-09-04T18:09:37.128Z,6.25
2022-09-04T18:11:18.456Z,4.38
2022-09-04T18:13:00.849Z,5.68
2022-09-04T18:14:42.734Z,3.42
2022-09-04T18:16:27.171Z,7.20
2022-09-04T18:18:09.821Z,3.17
2022-09-04T18:19:46.642Z,2.33
2022-09-04T18:21:24.462Z,3.33
2022-09-04T18:23:31.777Z,3.80
2022-09-04T18:25:16.930Z,3.55
2022-09-04T18:26:59.100Z,4.22
2022-09-04T18:28:42.293Z,3.20
2022-09-04T18:36:17.334Z,4.43
2022-09-04T18:37:08.360Z,2.30
2022-09-04T18:37:13.150Z,5.90
2022-09-04T18:37:26.028Z,4.35
2022-09-04T18:38:20.675Z,3.08
2022-09-04T18:40:07.001Z,3.10
2022-09-04T18:50:24.272Z,5.45
2022-09-04T18:50:28.449Z,2.55
2022-09-04T18:50:32.005Z,2.83
2022-09-04T18:50:32.229Z,3.35
2022-09-04T18:50:40.777Z,5.70
2022-09-04T18:51:59.882Z,8.30
2022-09-04T18:53:39.451Z,2.80
2022-09-04T18:55:23.039Z,5.00
2022-09-04T18:57:06.394Z,5.85
2022-09-04T18:58:53.043Z,3.35
2022-09-04T19:00:31.337Z,4.25
2022-09-04T19:02:16.980Z,3.47
2022-09-04T19:03:55.741Z,3.50
2022-09-04T19:05:44.388Z,6.30
2022-09-04T19:07:32.054Z,2.83
2022-09-04T19:09:12.957Z,11.43
2022-09-04T19:10:50.991Z,4.43
2022-09-04T19:12:35.638Z,2.97
2022-09-04T19:14:25.328Z,3.40
2022-09-04T19:16:07.919Z,3.20
2022-09-04T19:17:44.382Z,3.28
2022-09-04T19:19:22.240Z,4.10
2022-09-04T19:21:19.296Z,4.07
2022-09-04T19:22:59.606Z,2.95
2022-09-04T19:24:41.377Z,3.03
2022-09-04T19:26:24.574Z,3.95
2022-09-04T19:28:03.864Z,3.03
2022-09-04T19:29:44.988Z,2.88
2022-09-04T19:31:24.296Z,5.07
2022-09-04T19:33:14.586Z,5.72
2022-09-04T19:34:52.674Z,3.05
2022-09-04T19:36:34.541Z,2.58
2022-09-04T19:39:15.481Z,9.32
2022-09-04T19:45:17.295Z,3.38
2022-09-04T19:46:09.037Z,11.00
2022-09-04T19:46:14.473Z,3.25
2022-09-04T19:46:29.521Z,3.75
2022-09-04T19:48:27.990Z,5.03
2022-09-04T19:53:22.501Z,5.60
2022-09-04T19:53:36.808Z,3.50
2022-09-04T19:54:11.103Z,6.35
2022-09-04T19:55:48.023Z,4.65
2022-09-04T19:57:32.857Z,3.75
2022-09-04T19:59:15.431Z,5.45
2022-09-04T20:00:55.641Z,4.28
2022-09-04T20:02:36.970Z,3.72
2022-09-04T20:04:26.623Z,2.70
2022-09-04T20:06:20.133Z,3.30
2022-09-04T20:07:59.582Z,3.92
2022-09-04T20:09:39.297Z,3.70
2022-09-04T20:11:34.566Z,4.13
2022-09-04T20:13:19.776Z,3.53
2022-09-04T20:14:59.579Z,2.97
2022-09-04T20:16:38.724Z,2.97
2022-09-04T20:18:19.807Z,7.45
2022-09-04T20:19:58.417Z,4.25
2022-09-04T20:21:45.197Z,3.45
2022-09-04T20:23:43.845Z,7.55
2022-09-04T20:25:32.264Z,3.92
2022-09-04T20:27:15.873Z,3.63
2022-09-04T20:29:07.842Z,8.63
2022-09-04T20:30:44.151Z,4.13
2022-09-04T20:32:23.097Z,2.78
2022-09-04T20:34:09.577Z,4.47
2022-09-04T20:35:51.035Z,2.60
2022-09-04T20:37:43.696Z,5.82
2022-09-04T20:39:24.724Z,3.47
2022-09-04T20:41:03.587Z,3.08
2022-09-04T20:42:41.914Z,5.55
2022-09-04T20:44:20.803Z,3.88
2022-09-04T20:49:25.911Z,4.60
2022-09-04T20:52:45.459Z,4.60
2022-09-04T20:52:54.579Z,3.67
2022-09-04T20:53:08.441Z,3.17
2022-09-04T20:55:00.197Z,3.33
2022-09-04T20:57:31.506Z,3.67
2022-09-04T21:03:05.812Z,2.75
2022-09-04T21:03:13.597Z,3.92
2022-09-04T21:03:23.855Z,4.47
2022-09-04T21:05:16.649Z,4.28
2022-09-04T21:06:56.948Z,2.13
2022-09-04T21:08:37.384Z,3.30
2022-09-04T21:10:19.183Z,2.97
2022-09-04T21:12:00.260Z,4.07
2022-09-04T21:13:38.715Z,7.70
2022-09-04T21:15:24.959Z,2.13
2022-09-04T21:17:33.798Z,3.03
2022-09-04T21:19:43.241Z,4.03
2022-09-04T21:21:51.208Z,4.07
2022-09-04T21:24:03.182Z,8.40
2022-09-04T21:25:50.527Z,3.83
2022-09-04T21:27:49.515Z,3.65
2022-09-04T21:29:37.216Z,3.90
2022-09-04T21:31:22.252Z,3.60
2022-09-04T21:33:32.287Z,6.35
2022-09-04T21:35:14.341Z,5.07
2022-09-04T21:36:55.380Z,3.90
2022-09-04T21:38:57.210Z,5.13
2022-09-04T21:41:09.528Z,4.82
2022-09-04T21:43:08.195Z,3.45
2022-09-04T21:45:16.664Z,3.30
2022-09-04T21:47:07.417Z,3.10
2022-09-04T21:48:57.511Z,2.67
2022-09-04T21:50:58.851Z,4.60
2022-09-04T21:52:55.960Z,2.90
2022-09-04T21:56:16.069Z,2.92
2022-09-04T22:02:32.339Z,3.08
2022-09-04T22:02:40.284Z,3.13
2022-09-04T22:02:48.050Z,2.78
2022-09-04T22:03:35.176Z,2.85
2022-09-04T22:05:18.544Z,3.53
2022-09-04T22:09:47.481Z,4.90
2022-09-04T22:13:29.153Z,4.38
2022-09-04T22:13:37.630Z,2.80
2022-09-04T22:13:39.071Z,4.32
2022-09-04T22:15:18.712Z,3.95
2022-09-04T22:17:30.267Z,2.97
2022-09-04T22:19:28.072Z,3.90
2022-09-04T22:21:18.018Z,6.82
2022-09-04T22:23:24.883Z,4.07
2022-09-04T22:25:14.649Z,3.25
2022-09-04T22:28:00.324Z,4.40
2022-09-04T22:30:08.887Z,5.18
2022-09-04T22:32:03.374Z,2.22
2022-09-04T22:34:16.479Z,2.33
2022-09-04T22:36:38.112Z,2.72
2022-09-04T22:38:33.224Z,3.80
2022-09-04T22:40:38.074Z,2.67
2022-09-04T22:42:40.244Z,5.60
2022-09-04T22:44:31.516Z,4.65
2022-09-04T22:46:40.197Z,4.03
2022-09-04T22:48:32.725Z,3.20
2022-09-04T22:50:49.273Z,3.20
2022-09-04T22:52:53.446Z,3.63
2022-09-04T22:54:51.857Z,3.50
2022-09-04T22:56:39.689Z,2.38
2022-09-04T22:58:27.765Z,3.92
2022-09-04T23:00:14.181Z,4.07
2022-09-04T23:02:14.138Z,5.18
2022-09-04T23:04:04.975Z,4.00
2022-09-04T23:06:32.479Z,4.82
2022-09-04T23:13:46.233Z,2.80
2022-09-04T23:13:48.604Z,2.95
2022-09-04T23:13:57.712Z,2.60
2022-09-04T23:14:53.901Z,3.80
2022-09-04T23:17:16.484Z,3.70
2022-09-04T23:22:50.623Z,3.03
2022-09-04T23:26:32.320Z,5.45
2022-09-04T23:26:43.577Z,3.03
2022-09-04T23:26:52.626Z,3.10
2022-09-04T23:27:56.201Z,2.85
2022-09-04T23:29:51.535Z,5.63
2022-09-04T23:31:48.860Z,3.38
2022-09-04T23:33:45.520Z,3.83
2022-09-04T23:35:32.090Z,4.05
2022-09-04T23:37:25.320Z,3.80
2022-09-04T23:39:31.194Z,1.95
2022-09-04T23:41:14.235Z,3.65
2022-09-04T23:43:32.007Z,2.45
2022-09-04T23:45:23.424Z,2.85
2022-09-04T23:47:47.186Z,3.30
2022-09-04T23:49:34.175Z,2.67
2022-09-04T23:51:20.392Z,5.03
2022-09-04T23:53:04.889Z,3.53
2022-09-04T23:55:06.956Z,3.38
2022-09-04T23:56:44.683Z,3.17
2022-09-04T23:58:52.171Z,2.47
